sensor_id;sensor_type;location;lat;lon;timestamp;temperature;humidity
19060;DHT22;9663;48.996;8.334;2022-08-19T00:00:35;23.10;54.30
19060;DHT22;9663;48.996;8.334;2022-08-19T00:03:02;23.10;54.40
19060;DHT22;9663;48.996;8.334;2022-08-19T00:05:29;23.10;54.40
19060;DHT22;9663;48.996;8.334;2022-08-19T00:07:55;23.10;54.40
19060;DHT22;9663;48.996;8.334;2022-08-19T00:10:20;23.10;54.50
19060;DHT22;9663;48.996;8.334;2022-08-19T00:12:46;23.10;54.60
19060;DHT22;9663;48.996;8.334;2022-08-19T00:15:15;23.10;54.60
19060;DHT22;9663;48.996;8.334;2022-08-19T00:17:45;23.10;54.80
19060;DHT22;9663;48.996;8.334;2022-08-19T00:20:13;23.00;54.60
19060;DHT22;9663;48.996;8.334;2022-08-19T00:22:44;23.00;54.80
19060;DHT22;9663;48.996;8.334;2022-08-19T00:25:11;23.00;54.80
19060;DHT22;9663;48.996;8.334;2022-08-19T00:27:37;23.00;54.80
19060;DHT22;9663;48.996;8.334;2022-08-19T00:30:05;23.00;54.80
19060;DHT22;9663;48.996;8.334;2022-08-19T00:32:31;23.00;55.00
19060;DHT22;9663;48.996;8.334;2022-08-19T00:34:59;23.00;55.00
19060;DHT22;9663;48.996;8.334;2022-08-19T00:37:26;23.10;55.10
19060;DHT22;9663;48.996;8.334;2022-08-19T00:39:53;23.10;55.20
19060;DHT22;9663;48.996;8.334;2022-08-19T00:42:20;23.10;55.30
19060;DHT22;9663;48.996;8.334;2022-08-19T00:44:47;23.10;55.30
19060;DHT22;9663;48.996;8.334;2022-08-19T00:47:14;23.10;55.30
19060;DHT22;9663;48.996;8.334;2022-08-19T00:49:43;23.20;55.30
19060;DHT22;9663;48.996;8.334;2022-08-19T00:52:20;23.20;55.40
19060;DHT22;9663;48.996;8.334;2022-08-19T00:54:49;23.30;55.50
19060;DHT22;9663;48.996;8.334;2022-08-19T00:57:18;23.30;55.30
19060;DHT22;9663;48.996;8.334;2022-08-19T00:59:54;23.40;56.10
19060;DHT22;9663;48.996;8.334;2022-08-19T01:02:21;23.30;55.50
19060;DHT22;9663;48.996;8.334;2022-08-19T01:04:48;23.40;55.30
19060;DHT22;9663;48.996;8.334;2022-08-19T01:07:13;23.40;55.30
19060;DHT22;9663;48.996;8.334;2022-08-19T01:09:39;23.40;56.00
19060;DHT22;9663;48.996;8.334;2022-08-19T01:12:05;23.40;55.40
19060;DHT22;9663;48.996;8.334;2022-08-19T01:14:31;23.40;55.40
19060;DHT22;9663;48.996;8.334;2022-08-19T01:16:58;23.40;55.50
19060;DHT22;9663;48.996;8.334;2022-08-19T01:19:36;23.40;55.50
19060;DHT22;9663;48.996;8.334;2022-08-19T01:22:25;23.40;56.10
19060;DHT22;9663;48.996;8.334;2022-08-19T01:24:54;23.50;56.40
19060;DHT22;9663;48.996;8.334;2022-08-19T01:27:20;23.50;55.60
19060;DHT22;9663;48.996;8.334;2022-08-19T01:29:46;23.50;55.70
19060;DHT22;9663;48.996;8.334;2022-08-19T01:32:15;23.50;55.80
19060;DHT22;9663;48.996;8.334;2022-08-19T01:34:42;23.60;56.00
19060;DHT22;9663;48.996;8.334;2022-08-19T01:37:12;23.50;55.80
19060;DHT22;9663;48.996;8.334;2022-08-19T01:39:40;23.50;55.80
19060;DHT22;9663;48.996;8.334;2022-08-19T01:42:08;23.50;56.00
19060;DHT22;9663;48.996;8.334;2022-08-19T01:44:35;23.50;56.00
19060;DHT22;9663;48.996;8.334;2022-08-19T01:47:02;23.50;56.00
19060;DHT22;9663;48.996;8.334;2022-08-19T01:49:29;23.50;56.10
19060;DHT22;9663;48.996;8.334;2022-08-19T01:51:55;23.40;56.10
19060;DHT22;9663;48.996;8.334;2022-08-19T01:54:23;23.60;56.30
19060;DHT22;9663;48.996;8.334;2022-08-19T01:56:51;23.50;56.30
19060;DHT22;9663;48.996;8.334;2022-08-19T01:59:20;23.50;56.30
19060;DHT22;9663;48.996;8.334;2022-08-19T02:01:48;23.50;56.40
19060;DHT22;9663;48.996;8.334;2022-08-19T02:04:14;23.50;56.40
19060;DHT22;9663;48.996;8.334;2022-08-19T02:06:40;23.40;56.40
19060;DHT22;9663;48.996;8.334;2022-08-19T02:09:07;23.40;56.50
19060;DHT22;9663;48.996;8.334;2022-08-19T02:11:35;23.40;56.60
19060;DHT22;9663;48.996;8.334;2022-08-19T02:14:04;23.40;56.70
19060;DHT22;9663;48.996;8.334;2022-08-19T02:16:32;23.40;56.80
19060;DHT22;9663;48.996;8.334;2022-08-19T02:18:59;23.40;56.70
19060;DHT22;9663;48.996;8.334;2022-08-19T02:21:29;23.40;56.80
19060;DHT22;9663;48.996;8.334;2022-08-19T02:23:56;23.40;56.90
19060;DHT22;9663;48.996;8.334;2022-08-19T02:26:22;23.30;56.90
19060;DHT22;9663;48.996;8.334;2022-08-19T02:28:49;23.30;56.90
19060;DHT22;9663;48.996;8.334;2022-08-19T02:31:17;23.30;57.10
19060;DHT22;9663;48.996;8.334;2022-08-19T02:33:46;23.20;57.10
19060;DHT22;9663;48.996;8.334;2022-08-19T02:36:13;23.20;57.10
19060;DHT22;9663;48.996;8.334;2022-08-19T02:38:41;23.20;57.20
19060;DHT22;9663;48.996;8.334;2022-08-19T02:41:17;23.20;57.20
19060;DHT22;9663;48.996;8.334;2022-08-19T02:43:45;23.20;57.60
19060;DHT22;9663;48.996;8.334;2022-08-19T02:46:26;23.20;57.40
19060;DHT22;9663;48.996;8.334;2022-08-19T02:48:57;23.20;58.20
19060;DHT22;9663;48.996;8.334;2022-08-19T02:51:34;23.10;57.60
19060;DHT22;9663;48.996;8.334;2022-08-19T02:54:03;23.10;58.10
19060;DHT22;9663;48.996;8.334;2022-08-19T02:56:29;23.10;57.60
19060;DHT22;9663;48.996;8.334;2022-08-19T02:58:57;23.10;57.70
19060;DHT22;9663;48.996;8.334;2022-08-19T03:01:24;23.10;57.80
19060;DHT22;9663;48.996;8.334;2022-08-19T03:03:56;23.10;57.80
19060;DHT22;9663;48.996;8.334;2022-08-19T03:06:24;23.10;58.00
19060;DHT22;9663;48.996;8.334;2022-08-19T03:08:51;23.20;58.00
19060;DHT22;9663;48.996;8.334;2022-08-19T03:11:23;23.10;58.00
19060;DHT22;9663;48.996;8.334;2022-08-19T03:13:51;23.10;58.50
19060;DHT22;9663;48.996;8.334;2022-08-19T03:16:19;23.20;58.20
19060;DHT22;9663;48.996;8.334;2022-08-19T03:18:46;23.20;58.20
19060;DHT22;9663;48.996;8.334;2022-08-19T03:21:32;23.20;58.30
19060;DHT22;9663;48.996;8.334;2022-08-19T03:24:07;23.20;59.30
19060;DHT22;9663;48.996;8.334;2022-08-19T03:26:38;23.20;58.40
19060;DHT22;9663;48.996;8.334;2022-08-19T03:29:09;23.20;58.60
19060;DHT22;9663;48.996;8.334;2022-08-19T03:31:38;23.20;58.30
19060;DHT22;9663;48.996;8.334;2022-08-19T03:34:05;23.20;58.40
19060;DHT22;9663;48.996;8.334;2022-08-19T03:36:31;23.20;58.40
19060;DHT22;9663;48.996;8.334;2022-08-19T03:38:59;23.20;58.40
19060;DHT22;9663;48.996;8.334;2022-08-19T03:41:46;23.20;58.60
19060;DHT22;9663;48.996;8.334;2022-08-19T03:44:18;23.20;60.00
19060;DHT22;9663;48.996;8.334;2022-08-19T03:46:51;23.20;58.50
19060;DHT22;9663;48.996;8.334;2022-08-19T03:49:21;23.20;58.90
19060;DHT22;9663;48.996;8.334;2022-08-19T03:51:49;23.20;58.60
19060;DHT22;9663;48.996;8.334;2022-08-19T03:54:18;23.20;58.70
19060;DHT22;9663;48.996;8.334;2022-08-19T03:56:49;23.20;58.80
19060;DHT22;9663;48.996;8.334;2022-08-19T03:59:26;23.20;58.80
19060;DHT22;9663;48.996;8.334;2022-08-19T04:01:56;23.10;58.90
19060;DHT22;9663;48.996;8.334;2022-08-19T04:04:24;23.10;58.90
19060;DHT22;9663;48.996;8.334;2022-08-19T04:06:51;23.10;58.80
19060;DHT22;9663;48.996;8.334;2022-08-19T04:09:18;23.10;58.90
19060;DHT22;9663;48.996;8.334;2022-08-19T04:11:53;23.00;58.90
19060;DHT22;9663;48.996;8.334;2022-08-19T04:14:26;23.00;59.60
19060;DHT22;9663;48.996;8.334;2022-08-19T04:16:55;23.00;59.20
19060;DHT22;9663;48.996;8.334;2022-08-19T04:19:22;22.90;59.10
19060;DHT22;9663;48.996;8.334;2022-08-19T04:21:50;22.90;59.20
19060;DHT22;9663;48.996;8.334;2022-08-19T04:24:18;22.90;59.40
19060;DHT22;9663;48.996;8.334;2022-08-19T04:26:46;22.90;59.30
19060;DHT22;9663;48.996;8.334;2022-08-19T04:29:16;22.90;59.40
19060;DHT22;9663;48.996;8.334;2022-08-19T04:31:48;22.90;59.60
19060;DHT22;9663;48.996;8.334;2022-08-19T04:34:18;22.90;59.40
19060;DHT22;9663;48.996;8.334;2022-08-19T04:36:49;22.90;59.50
19060;DHT22;9663;48.996;8.334;2022-08-19T04:39:22;22.90;59.40
19060;DHT22;9663;48.996;8.334;2022-08-19T04:42:09;22.80;59.50
19060;DHT22;9663;48.996;8.334;2022-08-19T04:44:54;22.80;59.40
19060;DHT22;9663;48.996;8.334;2022-08-19T04:47:19;22.80;59.40
19060;DHT22;9663;48.996;8.334;2022-08-19T04:49:45;22.80;59.50
19060;DHT22;9663;48.996;8.334;2022-08-19T04:52:11;22.80;59.60
19060;DHT22;9663;48.996;8.334;2022-08-19T04:54:37;22.80;59.60
19060;DHT22;9663;48.996;8.334;2022-08-19T04:57:03;22.80;59.70
19060;DHT22;9663;48.996;8.334;2022-08-19T04:59:31;22.80;59.70
19060;DHT22;9663;48.996;8.334;2022-08-19T05:01:58;22.80;59.80
19060;DHT22;9663;48.996;8.334;2022-08-19T05:04:24;22.80;59.80
19060;DHT22;9663;48.996;8.334;2022-08-19T05:06:50;22.90;59.90
19060;DHT22;9663;48.996;8.334;2022-08-19T05:09:17;22.90;60.00
19060;DHT22;9663;48.996;8.334;2022-08-19T05:11:44;22.80;59.80
19060;DHT22;9663;48.996;8.334;2022-08-19T05:14:10;23.00;59.90
19060;DHT22;9663;48.996;8.334;2022-08-19T05:16:38;23.00;59.90
19060;DHT22;9663;48.996;8.334;2022-08-19T05:19:04;23.10;59.90
19060;DHT22;9663;48.996;8.334;2022-08-19T05:21:48;23.10;59.80
19060;DHT22;9663;48.996;8.334;2022-08-19T05:24:32;23.10;59.70
19060;DHT22;9663;48.996;8.334;2022-08-19T05:27:00;23.20;60.50
19060;DHT22;9663;48.996;8.334;2022-08-19T05:29:29;23.20;59.80
19060;DHT22;9663;48.996;8.334;2022-08-19T05:31:57;23.30;59.80
19060;DHT22;9663;48.996;8.334;2022-08-19T05:34:24;23.20;59.70
19060;DHT22;9663;48.996;8.334;2022-08-19T05:36:56;23.20;59.70
19060;DHT22;9663;48.996;8.334;2022-08-19T05:39:29;23.30;59.70
19060;DHT22;9663;48.996;8.334;2022-08-19T05:41:59;23.40;60.00
19060;DHT22;9663;48.996;8.334;2022-08-19T05:44:29;23.40;59.80
19060;DHT22;9663;48.996;8.334;2022-08-19T05:46:57;23.50;59.80
19060;DHT22;9663;48.996;8.334;2022-08-19T05:49:25;23.50;59.70
19060;DHT22;9663;48.996;8.334;2022-08-19T05:51:52;23.50;59.60
19060;DHT22;9663;48.996;8.334;2022-08-19T05:54:21;23.60;59.60
19060;DHT22;9663;48.996;8.334;2022-08-19T05:56:49;23.70;59.60
19060;DHT22;9663;48.996;8.334;2022-08-19T05:59:18;23.70;59.50
19060;DHT22;9663;48.996;8.334;2022-08-19T06:01:48;23.80;59.50
19060;DHT22;9663;48.996;8.334;2022-08-19T06:04:17;23.80;59.50
19060;DHT22;9663;48.996;8.334;2022-08-19T06:06:46;23.80;59.40
19060;DHT22;9663;48.996;8.334;2022-08-19T06:09:13;23.90;59.40
19060;DHT22;9663;48.996;8.334;2022-08-19T06:11:40;23.90;59.30
19060;DHT22;9663;48.996;8.334;2022-08-19T06:14:11;23.90;59.30
19060;DHT22;9663;48.996;8.334;2022-08-19T06:16:43;23.90;59.30
19060;DHT22;9663;48.996;8.334;2022-08-19T06:19:13;24.00;59.30
19060;DHT22;9663;48.996;8.334;2022-08-19T06:21:44;23.90;59.30
19060;DHT22;9663;48.996;8.334;2022-08-19T06:24:14;24.00;59.20
19060;DHT22;9663;48.996;8.334;2022-08-19T06:26:45;24.00;59.30
19060;DHT22;9663;48.996;8.334;2022-08-19T06:29:15;23.90;59.10
19060;DHT22;9663;48.996;8.334;2022-08-19T06:31:45;24.00;59.20
19060;DHT22;9663;48.996;8.334;2022-08-19T06:34:15;24.10;59.20
19060;DHT22;9663;48.996;8.334;2022-08-19T06:36:50;24.10;59.20
19060;DHT22;9663;48.996;8.334;2022-08-19T06:39:26;24.10;59.30
19060;DHT22;9663;48.996;8.334;2022-08-19T06:41:57;24.10;59.20
19060;DHT22;9663;48.996;8.334;2022-08-19T06:44:27;24.10;59.20
19060;DHT22;9663;48.996;8.334;2022-08-19T06:46:55;24.20;59.20
19060;DHT22;9663;48.996;8.334;2022-08-19T06:49:22;24.30;59.30
19060;DHT22;9663;48.996;8.334;2022-08-19T06:51:49;24.20;59.20
19060;DHT22;9663;48.996;8.334;2022-08-19T06:54:16;24.30;59.30
19060;DHT22;9663;48.996;8.334;2022-08-19T06:56:43;24.30;59.30
19060;DHT22;9663;48.996;8.334;2022-08-19T06:59:13;24.40;59.20
19060;DHT22;9663;48.996;8.334;2022-08-19T07:01:45;24.40;59.20
19060;DHT22;9663;48.996;8.334;2022-08-19T07:04:15;24.50;59.20
19060;DHT22;9663;48.996;8.334;2022-08-19T07:06:44;24.60;59.10
19060;DHT22;9663;48.996;8.334;2022-08-19T07:09:13;24.70;59.00
19060;DHT22;9663;48.996;8.334;2022-08-19T07:11:48;24.80;58.90
19060;DHT22;9663;48.996;8.334;2022-08-19T07:14:16;24.90;58.80
19060;DHT22;9663;48.996;8.334;2022-08-19T07:16:44;24.90;58.70
19060;DHT22;9663;48.996;8.334;2022-08-19T07:19:13;25.00;58.60
19060;DHT22;9663;48.996;8.334;2022-08-19T07:21:40;25.10;58.60
19060;DHT22;9663;48.996;8.334;2022-08-19T07:24:07;25.10;58.50
19060;DHT22;9663;48.996;8.334;2022-08-19T07:26:38;25.20;58.50
19060;DHT22;9663;48.996;8.334;2022-08-19T07:29:07;25.30;58.50
19060;DHT22;9663;48.996;8.334;2022-08-19T07:31:33;25.40;58.30
19060;DHT22;9663;48.996;8.334;2022-08-19T07:34:04;25.50;58.20
19060;DHT22;9663;48.996;8.334;2022-08-19T07:36:36;25.60;58.10
19060;DHT22;9663;48.996;8.334;2022-08-19T07:39:09;25.70;58.00
19060;DHT22;9663;48.996;8.334;2022-08-19T07:41:40;25.80;57.80
19060;DHT22;9663;48.996;8.334;2022-08-19T07:44:07;25.90;57.80
19060;DHT22;9663;48.996;8.334;2022-08-19T07:46:37;26.00;57.60
19060;DHT22;9663;48.996;8.334;2022-08-19T07:49:06;26.00;57.50
19060;DHT22;9663;48.996;8.334;2022-08-19T07:51:32;26.10;57.30
19060;DHT22;9663;48.996;8.334;2022-08-19T07:53:58;26.10;57.20
19060;DHT22;9663;48.996;8.334;2022-08-19T07:56:25;26.20;57.10
19060;DHT22;9663;48.996;8.334;2022-08-19T07:58:51;26.20;56.90
19060;DHT22;9663;48.996;8.334;2022-08-19T08:01:24;26.20;56.70
19060;DHT22;9663;48.996;8.334;2022-08-19T08:03:54;26.20;56.50
19060;DHT22;9663;48.996;8.334;2022-08-19T08:06:39;26.20;56.60
19060;DHT22;9663;48.996;8.334;2022-08-19T08:09:33;26.20;56.60
19060;DHT22;9663;48.996;8.334;2022-08-19T08:12:08;26.30;56.40
19060;DHT22;9663;48.996;8.334;2022-08-19T08:14:58;26.30;56.20
19060;DHT22;9663;48.996;8.334;2022-08-19T08:17:28;26.30;56.40
19060;DHT22;9663;48.996;8.334;2022-08-19T08:19:56;26.30;56.40
19060;DHT22;9663;48.996;8.334;2022-08-19T08:22:23;26.30;56.30
19060;DHT22;9663;48.996;8.334;2022-08-19T08:25:17;26.30;56.20
19060;DHT22;9663;48.996;8.334;2022-08-19T08:27:46;26.30;56.20
19060;DHT22;9663;48.996;8.334;2022-08-19T08:30:18;26.40;56.30
19060;DHT22;9663;48.996;8.334;2022-08-19T08:32:46;26.50;56.40
19060;DHT22;9663;48.996;8.334;2022-08-19T08:35:14;26.60;56.50
19060;DHT22;9663;48.996;8.334;2022-08-19T08:37:43;26.60;56.20
19060;DHT22;9663;48.996;8.334;2022-08-19T08:40:23;26.80;56.30
19060;DHT22;9663;48.996;8.334;2022-08-19T08:43:03;26.90;56.00
19060;DHT22;9663;48.996;8.334;2022-08-19T08:45:46;27.00;56.00
19060;DHT22;9663;48.996;8.334;2022-08-19T08:51:16;27.30;55.30
19060;DHT22;9663;48.996;8.334;2022-08-19T08:53:49;27.40;55.50
19060;DHT22;9663;48.996;8.334;2022-08-19T08:56:17;27.50;55.20
19060;DHT22;9663;48.996;8.334;2022-08-19T09:01:19;27.70;55.30
19060;DHT22;9663;48.996;8.334;2022-08-19T09:03:46;27.80;55.20
19060;DHT22;9663;48.996;8.334;2022-08-19T09:06:31;27.90;54.90
19060;DHT22;9663;48.996;8.334;2022-08-19T09:09:14;28.00;54.10
19060;DHT22;9663;48.996;8.334;2022-08-19T09:15:09;28.30;54.50
19060;DHT22;9663;48.996;8.334;2022-08-19T09:17:37;28.40;53.50
19060;DHT22;9663;48.996;8.334;2022-08-19T09:22:40;28.60;53.50
19060;DHT22;9663;48.996;8.334;2022-08-19T09:25:11;28.60;53.00
19060;DHT22;9663;48.996;8.334;2022-08-19T09:27:40;28.50;53.00
19060;DHT22;9663;48.996;8.334;2022-08-19T09:30:10;28.40;53.00
19060;DHT22;9663;48.996;8.334;2022-08-19T09:32:39;28.40;53.00
19060;DHT22;9663;48.996;8.334;2022-08-19T09:35:07;28.40;53.10
19060;DHT22;9663;48.996;8.334;2022-08-19T09:37:33;28.30;53.00
19060;DHT22;9663;48.996;8.334;2022-08-19T09:39:59;28.30;52.90
19060;DHT22;9663;48.996;8.334;2022-08-19T09:42:25;28.30;53.20
19060;DHT22;9663;48.996;8.334;2022-08-19T09:44:50;28.40;53.10
19060;DHT22;9663;48.996;8.334;2022-08-19T09:47:16;28.60;53.20
19060;DHT22;9663;48.996;8.334;2022-08-19T09:49:41;28.70;52.90
19060;DHT22;9663;48.996;8.334;2022-08-19T09:52:10;28.80;52.70
19060;DHT22;9663;48.996;8.334;2022-08-19T09:54:38;28.80;52.50
19060;DHT22;9663;48.996;8.334;2022-08-19T09:57:04;28.90;52.60
19060;DHT22;9663;48.996;8.334;2022-08-19T09:59:30;29.00;52.30
19060;DHT22;9663;48.996;8.334;2022-08-19T10:01:56;29.10;52.20
19060;DHT22;9663;48.996;8.334;2022-08-19T10:04:22;29.10;51.90
19060;DHT22;9663;48.996;8.334;2022-08-19T10:06:49;29.20;52.20
19060;DHT22;9663;48.996;8.334;2022-08-19T10:09:17;29.40;52.50
19060;DHT22;9663;48.996;8.334;2022-08-19T10:11:44;29.60;52.30
19060;DHT22;9663;48.996;8.334;2022-08-19T10:14:15;29.80;52.30
19060;DHT22;9663;48.996;8.334;2022-08-19T10:16:42;30.10;51.90
19060;DHT22;9663;48.996;8.334;2022-08-19T10:19:08;30.40;51.60
19060;DHT22;9663;48.996;8.334;2022-08-19T10:21:35;30.50;51.00
19060;DHT22;9663;48.996;8.334;2022-08-19T10:24:04;30.70;50.70
19060;DHT22;9663;48.996;8.334;2022-08-19T10:26:34;30.80;50.20
19060;DHT22;9663;48.996;8.334;2022-08-19T10:29:03;30.90;50.10
19060;DHT22;9663;48.996;8.334;2022-08-19T10:31:31;31.00;50.20
19060;DHT22;9663;48.996;8.334;2022-08-19T10:33:58;31.00;49.80
19060;DHT22;9663;48.996;8.334;2022-08-19T10:36:31;31.20;50.00
19060;DHT22;9663;48.996;8.334;2022-08-19T10:39:00;31.30;49.30
19060;DHT22;9663;48.996;8.334;2022-08-19T10:41:30;31.40;49.30
19060;DHT22;9663;48.996;8.334;2022-08-19T10:44:01;31.50;49.10
19060;DHT22;9663;48.996;8.334;2022-08-19T10:46:29;31.60;48.30
19060;DHT22;9663;48.996;8.334;2022-08-19T10:48:59;31.80;48.50
19060;DHT22;9663;48.996;8.334;2022-08-19T10:51:26;31.80;48.40
19060;DHT22;9663;48.996;8.334;2022-08-19T10:54:11;32.00;48.30
19060;DHT22;9663;48.996;8.334;2022-08-19T10:56:38;32.10;48.10
19060;DHT22;9663;48.996;8.334;2022-08-19T10:59:26;32.10;48.00
19060;DHT22;9663;48.996;8.334;2022-08-19T11:02:00;32.20;46.50
19060;DHT22;9663;48.996;8.334;2022-08-19T11:04:26;32.20;46.20
19060;DHT22;9663;48.996;8.334;2022-08-19T11:06:52;32.10;46.80
19060;DHT22;9663;48.996;8.334;2022-08-19T11:09:22;32.00;46.60
19060;DHT22;9663;48.996;8.334;2022-08-19T11:11:50;32.00;46.40
19060;DHT22;9663;48.996;8.334;2022-08-19T11:14:19;31.80;46.50
19060;DHT22;9663;48.996;8.334;2022-08-19T11:16:49;31.60;46.40
19060;DHT22;9663;48.996;8.334;2022-08-19T11:19:16;31.30;46.20
19060;DHT22;9663;48.996;8.334;2022-08-19T11:21:47;31.20;46.60
19060;DHT22;9663;48.996;8.334;2022-08-19T11:24:23;31.00;46.80
19060;DHT22;9663;48.996;8.334;2022-08-19T11:26:52;31.10;47.20
19060;DHT22;9663;48.996;8.334;2022-08-19T11:29:23;31.20;47.70
19060;DHT22;9663;48.996;8.334;2022-08-19T11:31:53;31.30;47.40
19060;DHT22;9663;48.996;8.334;2022-08-19T11:34:23;31.40;46.90
19060;DHT22;9663;48.996;8.334;2022-08-19T11:36:53;31.30;46.40
19060;DHT22;9663;48.996;8.334;2022-08-19T11:39:22;31.20;46.80
19060;DHT22;9663;48.996;8.334;2022-08-19T11:41:48;31.10;46.00
19060;DHT22;9663;48.996;8.334;2022-08-19T11:44:13;31.00;46.40
19060;DHT22;9663;48.996;8.334;2022-08-19T11:46:42;31.00;47.10
19060;DHT22;9663;48.996;8.334;2022-08-19T11:49:13;31.30;46.80
19060;DHT22;9663;48.996;8.334;2022-08-19T11:51:40;31.40;46.40
19060;DHT22;9663;48.996;8.334;2022-08-19T11:54:08;31.60;46.00
19060;DHT22;9663;48.996;8.334;2022-08-19T11:56:36;31.50;45.40
19060;DHT22;9663;48.996;8.334;2022-08-19T11:59:02;31.40;45.40
19060;DHT22;9663;48.996;8.334;2022-08-19T12:01:29;31.20;45.70
19060;DHT22;9663;48.996;8.334;2022-08-19T12:03:56;31.00;45.70
19060;DHT22;9663;48.996;8.334;2022-08-19T12:06:24;31.10;46.20
19060;DHT22;9663;48.996;8.334;2022-08-19T12:08:57;31.40;46.70
19060;DHT22;9663;48.996;8.334;2022-08-19T12:11:26;31.90;47.30
19060;DHT22;9663;48.996;8.334;2022-08-19T12:13:52;32.40;46.20
19060;DHT22;9663;48.996;8.334;2022-08-19T12:16:22;32.80;45.70
19060;DHT22;9663;48.996;8.334;2022-08-19T12:18:50;33.20;45.50
19060;DHT22;9663;48.996;8.334;2022-08-19T12:21:23;33.60;45.70
19060;DHT22;9663;48.996;8.334;2022-08-19T12:23:52;34.20;45.40
19060;DHT22;9663;48.996;8.334;2022-08-19T12:26:20;34.80;44.70
19060;DHT22;9663;48.996;8.334;2022-08-19T12:28:45;35.20;44.20
19060;DHT22;9663;48.996;8.334;2022-08-19T12:31:12;35.50;43.10
19060;DHT22;9663;48.996;8.334;2022-08-19T12:33:39;35.60;42.40
19060;DHT22;9663;48.996;8.334;2022-08-19T12:36:08;35.50;41.50
19060;DHT22;9663;48.996;8.334;2022-08-19T12:38:37;35.30;41.20
19060;DHT22;9663;48.996;8.334;2022-08-19T12:41:06;34.90;41.00
19060;DHT22;9663;48.996;8.334;2022-08-19T12:43:36;34.60;41.10
19060;DHT22;9663;48.996;8.334;2022-08-19T12:46:06;34.40;41.50
19060;DHT22;9663;48.996;8.334;2022-08-19T12:48:33;34.40;41.50
19060;DHT22;9663;48.996;8.334;2022-08-19T12:50:59;34.30;41.70
19060;DHT22;9663;48.996;8.334;2022-08-19T12:53:33;34.30;41.70
19060;DHT22;9663;48.996;8.334;2022-08-19T12:55:59;34.40;41.50
19060;DHT22;9663;48.996;8.334;2022-08-19T12:58:25;34.40;41.70
19060;DHT22;9663;48.996;8.334;2022-08-19T13:00:52;34.50;41.70
19060;DHT22;9663;48.996;8.334;2022-08-19T13:03:18;34.60;41.30
19060;DHT22;9663;48.996;8.334;2022-08-19T13:05:44;34.70;40.90
19060;DHT22;9663;48.996;8.334;2022-08-19T13:08:10;34.50;40.50
19060;DHT22;9663;48.996;8.334;2022-08-19T13:10:36;34.40;40.10
19060;DHT22;9663;48.996;8.334;2022-08-19T13:13:05;34.20;40.10
19060;DHT22;9663;48.996;8.334;2022-08-19T13:15:34;33.90;40.10
19060;DHT22;9663;48.996;8.334;2022-08-19T13:18:02;33.80;40.30
19060;DHT22;9663;48.996;8.334;2022-08-19T13:20:28;33.70;40.50
19060;DHT22;9663;48.996;8.334;2022-08-19T13:22:55;33.90;41.30
19060;DHT22;9663;48.996;8.334;2022-08-19T13:25:22;34.30;41.70
19060;DHT22;9663;48.996;8.334;2022-08-19T13:27:49;34.80;41.70
19060;DHT22;9663;48.996;8.334;2022-08-19T13:30:17;35.50;41.50
19060;DHT22;9663;48.996;8.334;2022-08-19T13:33:04;36.10;40.80
19060;DHT22;9663;48.996;8.334;2022-08-19T13:35:59;36.80;39.60
19060;DHT22;9663;48.996;8.334;2022-08-19T13:38:27;37.40;37.70
19060;DHT22;9663;48.996;8.334;2022-08-19T13:40:54;37.80;38.50
19060;DHT22;9663;48.996;8.334;2022-08-19T13:43:23;38.20;37.80
19060;DHT22;9663;48.996;8.334;2022-08-19T13:45:53;38.40;36.30
19060;DHT22;9663;48.996;8.334;2022-08-19T13:48:22;38.30;35.70
19060;DHT22;9663;48.996;8.334;2022-08-19T13:50:48;38.00;35.20
19060;DHT22;9663;48.996;8.334;2022-08-19T13:53:15;37.60;34.80
19060;DHT22;9663;48.996;8.334;2022-08-19T13:55:43;37.10;34.10
19060;DHT22;9663;48.996;8.334;2022-08-19T13:58:10;36.50;33.90
19060;DHT22;9663;48.996;8.334;2022-08-19T14:00:40;35.90;34.20
19060;DHT22;9663;48.996;8.334;2022-08-19T14:03:08;35.40;34.40
19060;DHT22;9663;48.996;8.334;2022-08-19T14:05:35;35.00;35.10
19060;DHT22;9663;48.996;8.334;2022-08-19T14:08:01;34.60;35.40
19060;DHT22;9663;48.996;8.334;2022-08-19T14:10:28;34.30;35.60
19060;DHT22;9663;48.996;8.334;2022-08-19T14:12:58;34.00;35.70
19060;DHT22;9663;48.996;8.334;2022-08-19T14:15:26;33.80;35.70
19060;DHT22;9663;48.996;8.334;2022-08-19T14:17:53;33.60;36.10
19060;DHT22;9663;48.996;8.334;2022-08-19T14:20:19;33.50;36.30
19060;DHT22;9663;48.996;8.334;2022-08-19T14:22:47;33.40;36.40
19060;DHT22;9663;48.996;8.334;2022-08-19T14:25:17;33.30;36.30
19060;DHT22;9663;48.996;8.334;2022-08-19T14:27:47;33.20;36.30
19060;DHT22;9663;48.996;8.334;2022-08-19T14:30:16;33.10;36.40
19060;DHT22;9663;48.996;8.334;2022-08-19T14:32:45;33.10;36.30
19060;DHT22;9663;48.996;8.334;2022-08-19T14:35:12;33.00;36.40
19060;DHT22;9663;48.996;8.334;2022-08-19T14:37:40;32.90;36.30
19060;DHT22;9663;48.996;8.334;2022-08-19T14:40:07;32.80;36.40
19060;DHT22;9663;48.996;8.334;2022-08-19T14:42:34;32.70;36.40
19060;DHT22;9663;48.996;8.334;2022-08-19T14:45:00;32.60;36.60
19060;DHT22;9663;48.996;8.334;2022-08-19T14:47:27;32.50;36.80
19060;DHT22;9663;48.996;8.334;2022-08-19T14:49:53;32.50;36.80
19060;DHT22;9663;48.996;8.334;2022-08-19T14:52:19;32.30;36.70
19060;DHT22;9663;48.996;8.334;2022-08-19T14:54:45;32.20;36.80
19060;DHT22;9663;48.996;8.334;2022-08-19T14:57:13;32.10;37.00
19060;DHT22;9663;48.996;8.334;2022-08-19T14:59:44;32.00;37.00
19060;DHT22;9663;48.996;8.334;2022-08-19T15:02:10;31.90;37.70
19060;DHT22;9663;48.996;8.334;2022-08-19T15:04:37;31.70;37.10
19060;DHT22;9663;48.996;8.334;2022-08-19T15:07:03;31.60;37.20
19060;DHT22;9663;48.996;8.334;2022-08-19T15:09:33;31.50;37.20
19060;DHT22;9663;48.996;8.334;2022-08-19T15:12:00;31.40;37.30
19060;DHT22;9663;48.996;8.334;2022-08-19T15:14:28;31.30;37.30
19060;DHT22;9663;48.996;8.334;2022-08-19T15:16:58;31.20;37.40
19060;DHT22;9663;48.996;8.334;2022-08-19T15:19:24;31.10;37.50
19060;DHT22;9663;48.996;8.334;2022-08-19T15:21:50;31.00;37.60
19060;DHT22;9663;48.996;8.334;2022-08-19T15:24:16;30.90;37.70
19060;DHT22;9663;48.996;8.334;2022-08-19T15:26:42;30.90;37.90
19060;DHT22;9663;48.996;8.334;2022-08-19T15:29:08;30.80;37.70
19060;DHT22;9663;48.996;8.334;2022-08-19T15:31:34;30.60;37.60
19060;DHT22;9663;48.996;8.334;2022-08-19T15:34:01;30.60;37.70
19060;DHT22;9663;48.996;8.334;2022-08-19T15:36:28;30.40;37.60
19060;DHT22;9663;48.996;8.334;2022-08-19T15:38:57;30.30;37.60
19060;DHT22;9663;48.996;8.334;2022-08-19T15:41:27;30.30;37.50
19060;DHT22;9663;48.996;8.334;2022-08-19T15:43:58;30.20;37.50
19060;DHT22;9663;48.996;8.334;2022-08-19T15:46:27;30.20;37.60
19060;DHT22;9663;48.996;8.334;2022-08-19T15:48:56;30.20;37.70
19060;DHT22;9663;48.996;8.334;2022-08-19T15:51:23;30.20;37.80
19060;DHT22;9663;48.996;8.334;2022-08-19T15:53:50;30.20;37.80
19060;DHT22;9663;48.996;8.334;2022-08-19T15:56:16;30.10;37.70
19060;DHT22;9663;48.996;8.334;2022-08-19T15:58:42;30.20;37.80
19060;DHT22;9663;48.996;8.334;2022-08-19T16:01:28;30.30;37.80
19060;DHT22;9663;48.996;8.334;2022-08-19T16:03:58;30.30;38.50
19060;DHT22;9663;48.996;8.334;2022-08-19T16:06:51;30.30;37.60
19060;DHT22;9663;48.996;8.334;2022-08-19T16:09:20;30.40;37.60